createdAt,value
2022-11-05T00:00:37.297Z,9.03
2022-11-05T00:04:57.684Z,15.60
2022-11-05T00:09:18.151Z,16.43
2022-11-05T00:13:38.669Z,11.27
2022-11-05T00:17:40.742Z,11.00
2022-11-05T00:22:01.161Z,10.93
2022-11-05T00:26:08.301Z,10.07
2022-11-05T00:30:11.064Z,13.03
2022-11-05T00:34:12.725Z,9.70
2022-11-05T00:38:14.578Z,9.67
2022-11-05T00:42:34.666Z,12.70
2022-11-05T00:46:36.331Z,11.80
2022-11-05T00:50:38.184Z,9.03
2022-11-05T00:54:39.846Z,11.37
2022-11-05T00:58:41.515Z,7.33
2022-11-05T01:02:43.600Z,9.63
2022-11-05T01:06:45.343Z,9.70
2022-11-05T01:10:52.445Z,7.03
2022-11-05T01:14:54.106Z,8.83
2022-11-05T01:18:55.750Z,8.13
2022-11-05T01:22:58.482Z,12.17
2022-11-05T01:27:00.152Z,9.63
2022-11-05T01:31:01.846Z,7.57
2022-11-05T01:35:10.352Z,6.50
2022-11-05T01:39:12.017Z,10.97
2022-11-05T01:43:19.829Z,10.63
2022-11-05T01:47:29.989Z,11.03
2022-11-05T01:51:32.130Z,9.80
2022-11-05T01:55:37.867Z,10.90
2022-11-05T01:59:53.200Z,7.77
2022-11-05T02:03:59.499Z,7.97
2022-11-05T02:08:01.246Z,9.93
2022-11-05T02:12:03.321Z,10.07
2022-11-05T02:16:46.333Z,14.90
2022-11-05T02:21:17.240Z,12.13
2022-11-05T02:25:56.136Z,11.77
2022-11-05T02:30:05.644Z,13.43
2022-11-05T02:34:39.479Z,11.00
2022-11-05T02:39:05.807Z,9.07
2022-11-05T02:43:24.676Z,14.30
2022-11-05T02:47:33.077Z,12.53
2022-11-05T02:51:58.587Z,10.27
2022-11-05T02:56:16.761Z,10.23
2022-11-05T03:00:48.244Z,10.60
2022-11-05T03:04:49.944Z,9.17
2022-11-05T03:09:20.520Z,11.53
2022-11-05T03:13:39.924Z,11.60
2022-11-05T03:17:59.083Z,9.07
2022-11-05T03:22:08.211Z,10.43
2022-11-05T03:26:22.759Z,11.63
2022-11-05T03:30:25.436Z,9.67
2022-11-05T03:34:32.300Z,9.07
2022-11-05T03:38:37.252Z,9.17
2022-11-05T03:42:43.654Z,9.07
2022-11-05T03:46:49.324Z,10.70
2022-11-05T03:51:30.263Z,10.60
2022-11-05T03:56:02.927Z,8.63
2022-11-05T04:00:08.229Z,10.10
2022-11-05T04:04:09.956Z,9.13
2022-11-05T04:08:30.246Z,8.50
2022-11-05T04:12:50.721Z,9.70
2022-11-05T04:17:09.464Z,8.60
2022-11-05T04:21:30.262Z,5.57
2022-11-05T04:25:31.939Z,8.33
2022-11-05T04:29:52.100Z,6.67
2022-11-05T04:33:53.723Z,7.77
2022-11-05T04:37:55.413Z,6.00
2022-11-05T04:41:57.033Z,6.27
2022-11-05T04:45:58.674Z,6.37
2022-11-05T04:50:00.337Z,8.27
2022-11-05T04:54:20.736Z,8.23
2022-11-05T04:58:22.483Z,9.17
2022-11-05T05:02:24.247Z,8.93
2022-11-05T05:06:25.928Z,6.07
2022-11-05T05:10:27.580Z,6.70
2022-11-05T05:14:29.392Z,3.33
2022-11-05T05:18:31.016Z,3.43
2022-11-05T05:22:32.716Z,3.47
2022-11-05T05:26:36.055Z,4.23
2022-11-05T05:30:37.707Z,4.67
2022-11-05T05:34:39.366Z,7.27
2022-11-05T05:38:41.002Z,29.40
2022-11-05T05:42:43.549Z,21.40
2022-11-05T05:46:45.373Z,22.53
2022-11-05T05:50:46.972Z,20.60
2022-11-05T05:54:48.632Z,17.93
2022-11-05T05:58:50.276Z,23.37
2022-11-05T06:02:52.016Z,24.03
2022-11-05T06:06:53.689Z,22.07
2022-11-05T06:10:55.496Z,19.53
2022-11-05T06:14:57.243Z,19.37
2022-11-05T06:18:58.866Z,19.20
2022-11-05T06:23:00.504Z,12.50
2022-11-05T06:27:02.156Z,9.97
2022-11-05T06:31:04.094Z,11.43
2022-11-05T06:35:06.084Z,9.60
2022-11-05T06:39:11.781Z,10.13
2022-11-05T06:43:13.718Z,8.50
2022-11-05T06:47:15.839Z,8.47
2022-11-05T06:51:17.576Z,14.17
2022-11-05T06:55:19.191Z,12.00
2022-11-05T06:59:20.873Z,10.77
2022-11-05T07:03:22.576Z,10.13
2022-11-05T07:07:24.256Z,6.77
2022-11-05T07:11:26.003Z,7.80
2022-11-05T07:15:27.676Z,8.73
2022-11-05T07:19:29.362Z,10.60
2022-11-05T07:23:31.025Z,10.57
2022-11-05T07:27:38.756Z,4.40
2022-11-05T07:31:40.410Z,3.50
2022-11-05T07:35:42.067Z,4.87
2022-11-05T07:39:43.709Z,2.33
2022-11-05T07:43:45.348Z,2.23
2022-11-05T07:47:52.341Z,1.40
2022-11-05T07:51:54.030Z,1.67
2022-11-05T07:55:57.152Z,2.00
2022-11-05T07:59:58.824Z,2.30
2022-11-05T08:04:00.472Z,1.67
2022-11-05T08:08:02.455Z,3.27
2022-11-05T08:12:04.486Z,1.90
2022-11-05T08:16:06.616Z,1.20
2022-11-05T08:20:09.020Z,1.83
2022-11-05T08:24:10.799Z,2.20
2022-11-05T08:28:13.127Z,2.13
2022-11-05T08:32:14.852Z,1.40
2022-11-05T08:36:16.644Z,9.63
2022-11-05T08:40:18.304Z,2.67
2022-11-05T08:44:20.002Z,2.07
2022-11-05T08:48:21.661Z,2.23
2022-11-05T08:52:23.332Z,7.97
2022-11-05T08:56:25.084Z,13.03
2022-11-05T09:00:28.267Z,12.43
2022-11-05T09:04:30.492Z,6.10
2022-11-05T09:08:32.515Z,3.63
2022-11-05T09:12:34.244Z,2.50
2022-11-05T09:16:36.883Z,3.50
2022-11-05T09:20:40.018Z,4.00
2022-11-05T09:24:44.780Z,4.20
2022-11-05T09:28:46.484Z,4.13
2022-11-05T09:32:48.332Z,4.43
2022-11-05T09:36:49.984Z,4.90
2022-11-05T09:41:17.387Z,5.33
2022-11-05T09:45:22.786Z,5.90
2022-11-05T09:49:44.439Z,8.37
2022-11-05T09:53:46.758Z,7.97
2022-11-05T09:58:00.469Z,7.00
2022-11-05T10:02:19.548Z,9.37
2022-11-05T10:06:26.434Z,9.57
2022-11-05T10:10:51.310Z,10.30
2022-11-05T10:15:15.754Z,10.47
2022-11-05T10:19:25.112Z,10.17
2022-11-05T10:23:27.945Z,18.87
2022-11-05T10:27:33.431Z,15.03
2022-11-05T10:31:37.107Z,10.63
2022-11-05T10:35:47.506Z,9.93
2022-11-05T10:39:49.660Z,9.77
2022-11-05T10:43:54.345Z,11.27
2022-11-05T10:47:55.948Z,11.37
2022-11-05T10:51:59.910Z,9.07
2022-11-05T10:56:02.538Z,11.03
2022-11-05T11:00:19.162Z,8.90
2022-11-05T11:04:24.434Z,11.27
2022-11-05T11:08:26.135Z,10.03
2022-11-05T11:12:40.818Z,10.37
2022-11-05T11:16:50.301Z,9.13
2022-11-05T11:20:52.138Z,9.30
2022-11-05T11:24:54.080Z,9.17
2022-11-05T11:29:06.172Z,8.80
2022-11-05T11:33:09.550Z,9.37
2022-11-05T11:37:35.493Z,9.40
2022-11-05T11:41:41.876Z,7.27
2022-11-05T11:45:52.866Z,7.63
2022-11-05T11:49:58.048Z,4.53
2022-11-05T11:54:01.187Z,4.30
2022-11-05T11:58:07.820Z,3.70
2022-11-05T12:02:48.730Z,3.83
2022-11-05T12:07:10.052Z,4.67
2022-11-05T12:11:34.591Z,3.37
2022-11-05T12:15:50.996Z,4.60
2022-11-05T12:20:13.660Z,4.70
2022-11-05T12:24:22.669Z,5.03
2022-11-05T12:28:24.303Z,7.47
2022-11-05T12:32:44.641Z,7.83
2022-11-05T12:37:29.302Z,8.83
2022-11-05T12:41:49.457Z,6.57
2022-11-05T12:45:54.143Z,8.07
2022-11-05T12:50:20.596Z,8.37
2022-11-05T12:54:37.194Z,7.23
2022-11-05T12:58:44.238Z,7.70
2022-11-05T13:03:00.891Z,6.80
2022-11-05T13:07:08.736Z,6.30
2022-11-05T13:11:36.216Z,7.10
2022-11-05T13:15:44.142Z,7.80
2022-11-05T13:19:57.279Z,7.00
2022-11-05T13:24:11.003Z,5.90
2022-11-05T13:28:36.948Z,6.03
2022-11-05T13:32:46.528Z,7.03
2022-11-05T13:37:22.782Z,5.67
2022-11-05T13:41:54.723Z,6.00
2022-11-05T13:46:34.570Z,5.40
2022-11-05T13:50:52.170Z,6.20
2022-11-05T13:55:03.097Z,6.87
2022-11-05T13:59:10.419Z,7.07
2022-11-05T14:03:21.141Z,16.50
2022-11-05T14:07:28.974Z,9.30
2022-11-05T14:11:32.544Z,5.53
2022-11-05T14:15:34.571Z,5.63
2022-11-05T14:19:51.760Z,6.20
2022-11-05T14:23:59.082Z,6.57
2022-11-05T14:28:00.804Z,7.87
2022-11-05T14:32:26.409Z,9.90
2022-11-05T14:36:34.661Z,9.93
2022-11-05T14:40:44.519Z,8.50
2022-11-05T14:45:03.208Z,7.07
2022-11-05T14:49:09.526Z,6.77
2022-11-05T14:53:31.615Z,7.30
2022-11-05T14:57:56.695Z,8.00
2022-11-05T15:02:03.850Z,10.53
2022-11-05T15:06:24.279Z,10.53
2022-11-05T15:10:31.759Z,9.33
2022-11-05T15:15:00.753Z,9.70
2022-11-05T15:19:04.540Z,8.37
2022-11-05T15:23:10.026Z,11.23
2022-11-05T15:27:32.687Z,14.43
2022-11-05T15:31:37.460Z,12.50
2022-11-05T15:35:41.339Z,14.43
2022-11-05T15:39:45.309Z,10.73
2022-11-05T15:43:48.546Z,13.57
2022-11-05T15:47:50.225Z,11.23
2022-11-05T15:51:51.865Z,11.30
2022-11-05T15:55:58.174Z,11.60
2022-11-05T16:00:07.704Z,10.23
2022-11-05T16:04:21.702Z,11.63
2022-11-05T16:08:29.373Z,10.53
2022-11-05T16:12:34.142Z,11.47
2022-11-05T16:16:35.916Z,11.07
2022-11-05T16:20:38.735Z,10.70
2022-11-05T16:24:40.497Z,12.53
2022-11-05T16:28:42.189Z,11.27
2022-11-05T16:32:43.944Z,10.50
2022-11-05T16:36:45.678Z,9.33
2022-11-05T16:40:47.584Z,11.20
2022-11-05T16:44:50.776Z,9.97
2022-11-05T16:48:52.491Z,11.43
2022-11-05T16:52:54.205Z,23.93
2022-11-05T16:56:55.890Z,14.97
2022-11-05T17:01:11.313Z,27.47
2022-11-05T17:05:21.037Z,15.10
2022-11-05T17:09:22.730Z,11.97
2022-11-05T17:13:24.445Z,13.17
2022-11-05T17:17:26.087Z,12.63
2022-11-05T17:21:28.776Z,14.53
2022-11-05T17:25:30.683Z,16.57
2022-11-05T17:29:32.387Z,11.33
2022-11-05T17:33:34.291Z,13.97
2022-11-05T17:37:36.270Z,11.73
2022-11-05T17:41:37.938Z,19.53
2022-11-05T17:45:47.856Z,20.47
2022-11-05T17:49:49.531Z,18.23
2022-11-05T17:53:51.729Z,19.70
2022-11-05T17:57:53.425Z,42.20
2022-11-05T18:01:55.163Z,23.63
2022-11-05T18:06:04.871Z,23.87
2022-11-05T18:10:07.157Z,29.43
2022-11-05T18:14:09.208Z,32.77
2022-11-05T18:18:11.070Z,28.27
2022-11-05T18:22:12.820Z,27.07
2022-11-05T18:26:16.496Z,25.73
2022-11-05T18:30:18.217Z,23.70
2022-11-05T18:34:19.871Z,24.77
2022-11-05T18:38:21.664Z,22.67
2022-11-05T18:42:25.285Z,22.23
2022-11-05T18:46:55.943Z,25.00
2022-11-05T18:50:50.096Z,27.50
2022-11-05T18:54:51.827Z,33.93
2022-11-05T18:59:14.704Z,37.00
2022-11-05T19:03:16.178Z,29.97
2022-11-05T19:07:19.134Z,36.30
2022-11-05T19:11:22.968Z,40.83
2022-11-05T19:15:24.740Z,33.00
2022-11-05T19:19:27.065Z,37.67
2022-11-05T19:23:28.766Z,36.63
2022-11-05T19:27:30.503Z,30.27
2022-11-05T19:31:32.383Z,29.87
2022-11-05T19:35:39.926Z,26.10
2022-11-05T19:39:43.223Z,21.27
2022-11-05T19:43:45.709Z,32.17
2022-11-05T19:47:47.395Z,28.53
2022-11-05T19:51:49.036Z,18.20
2022-11-05T19:55:50.900Z,14.23
2022-11-05T19:59:52.579Z,14.23
2022-11-05T20:03:55.874Z,18.30
2022-11-05T20:07:58.714Z,17.30
2022-11-05T20:12:00.415Z,22.60
2022-11-05T20:16:02.500Z,23.10
2022-11-05T20:20:05.268Z,23.43
2022-11-05T20:24:07.204Z,23.87
2022-11-05T20:28:09.363Z,24.60
2022-11-05T20:32:12.711Z,23.30
2022-11-05T20:36:16.826Z,24.30
2022-11-05T20:40:18.651Z,26.73
2022-11-05T20:44:20.340Z,20.20
2022-11-05T20:48:22.066Z,17.20
2022-11-05T20:52:23.968Z,20.47
2022-11-05T20:56:31.943Z,18.80
2022-11-05T21:00:33.643Z,17.57
2022-11-05T21:04:35.415Z,17.60
2022-11-05T21:08:37.688Z,22.97
2022-11-05T21:12:39.627Z,43.67
2022-11-05T21:16:41.373Z,27.60
2022-11-05T21:20:43.074Z,21.67
2022-11-05T21:30:07.983Z,20.23
2022-11-05T21:34:10.189Z,20.73
2022-11-05T21:38:14.447Z,20.80
2022-11-05T21:42:16.256Z,25.07
2022-11-05T21:46:17.984Z,22.23
2022-11-05T21:50:22.100Z,22.10
2022-11-05T21:54:42.364Z,32.20
2022-11-05T21:59:03.014Z,30.17
2022-11-05T22:03:04.726Z,24.00
2022-11-05T22:07:07.703Z,17.60
2022-11-05T22:11:09.407Z,22.57
2022-11-05T22:15:11.390Z,20.63
2022-11-05T22:19:13.114Z,19.50
2022-11-05T22:23:14.790Z,21.97
2022-11-05T22:27:20.455Z,23.17
2022-11-05T22:31:22.613Z,23.37
2022-11-05T22:35:24.426Z,17.47
2022-11-05T22:39:26.151Z,16.10
2022-11-05T22:43:27.934Z,15.93
2022-11-05T22:47:29.640Z,25.37
2022-11-05T22:51:36.623Z,15.00
2022-11-05T22:55:41.365Z,15.90
2022-11-05T22:59:43.229Z,18.90
2022-11-05T23:03:46.672Z,21.60
2022-11-05T23:08:06.780Z,29.80
2022-11-05T23:12:21.820Z,25.83
2022-11-05T23:16:42.193Z,22.63
2022-11-05T23:21:02.480Z,17.93
2022-11-05T23:25:05.569Z,17.27
2022-11-05T23:29:07.402Z,17.97
2022-11-05T23:33:09.171Z,21.93
2022-11-05T23:37:29.443Z,27.80
2022-11-05T23:41:49.911Z,30.80
2022-11-05T23:45:57.630Z,31.83
2022-11-05T23:49:59.372Z,24.33
2022-11-05T23:54:01.019Z,23.83
2022-11-05T23:58:02.779Z,25.33
